sensor_id;sensor_type;location;lat;lon;timestamp;P1;durP1;ratioP1;P2;durP2;ratioP2
13959;SDS011;7052;51.050;3.716;2023-05-10T00:00:13;18.90;;;12.20;;
13959;SDS011;7052;51.050;3.716;2023-05-10T00:02:42;18.87;;;12.10;;
13959;SDS011;7052;51.050;3.716;2023-05-10T00:05:12;19.63;;;12.17;;
13959;SDS011;7052;51.050;3.716;2023-05-10T00:07:39;18.90;;;12.53;;
13959;SDS011;7052;51.050;3.716;2023-05-10T00:10:09;20.77;;;12.37;;
13959;SDS011;7052;51.050;3.716;2023-05-10T00:12:37;16.60;;;12.50;;
13959;SDS011;7052;51.050;3.716;2023-05-10T00:15:09;19.77;;;13.53;;
13959;SDS011;7052;51.050;3.716;2023-05-10T00:17:36;17.87;;;12.33;;
13959;SDS011;7052;51.050;3.716;2023-05-10T00:20:04;19.00;;;12.53;;
13959;SDS011;7052;51.050;3.716;2023-05-10T00:22:32;19.73;;;13.77;;
13959;SDS011;7052;51.050;3.716;2023-05-10T00:24:59;23.70;;;13.10;;
13959;SDS011;7052;51.050;3.716;2023-05-10T00:27:27;16.40;;;12.40;;
13959;SDS011;7052;51.050;3.716;2023-05-10T00:29:58;21.80;;;14.67;;
13959;SDS011;7052;51.050;3.716;2023-05-10T00:32:28;21.43;;;15.43;;
13959;SDS011;7052;51.050;3.716;2023-05-10T00:34:57;22.37;;;15.00;;
13959;SDS011;7052;51.050;3.716;2023-05-10T00:37:26;23.07;;;16.10;;
13959;SDS011;7052;51.050;3.716;2023-05-10T00:39:53;24.17;;;16.63;;
13959;SDS011;7052;51.050;3.716;2023-05-10T00:42:25;22.93;;;16.20;;
13959;SDS011;7052;51.050;3.716;2023-05-10T00:44:53;23.37;;;16.63;;
13959;SDS011;7052;51.050;3.716;2023-05-10T00:47:21;25.70;;;17.50;;
13959;SDS011;7052;51.050;3.716;2023-05-10T00:49:57;26.43;;;17.93;;
13959;SDS011;7052;51.050;3.716;2023-05-10T00:52:29;25.70;;;17.00;;
13959;SDS011;7052;51.050;3.716;2023-05-10T00:54:58;24.73;;;17.47;;
13959;SDS011;7052;51.050;3.716;2023-05-10T00:57:28;24.63;;;17.47;;
13959;SDS011;7052;51.050;3.716;2023-05-10T00:59:58;26.30;;;18.43;;
13959;SDS011;7052;51.050;3.716;2023-05-10T01:02:28;26.40;;;17.77;;
13959;SDS011;7052;51.050;3.716;2023-05-10T01:04:58;25.43;;;18.10;;
13959;SDS011;7052;51.050;3.716;2023-05-10T01:07:26;25.90;;;17.70;;
13959;SDS011;7052;51.050;3.716;2023-05-10T01:09:54;23.10;;;17.57;;
13959;SDS011;7052;51.050;3.716;2023-05-10T01:12:21;23.93;;;17.50;;
13959;SDS011;7052;51.050;3.716;2023-05-10T01:14:51;29.43;;;19.77;;
13959;SDS011;7052;51.050;3.716;2023-05-10T01:17:20;26.00;;;19.10;;
13959;SDS011;7052;51.050;3.716;2023-05-10T01:19:50;26.50;;;19.43;;
13959;SDS011;7052;51.050;3.716;2023-05-10T01:22:25;26.30;;;19.00;;
13959;SDS011;7052;51.050;3.716;2023-05-10T01:25:19;28.60;;;19.97;;
13959;SDS011;7052;51.050;3.716;2023-05-10T01:28:20;26.70;;;19.30;;
13959;SDS011;7052;51.050;3.716;2023-05-10T01:31:06;30.10;;;19.53;;
13959;SDS011;7052;51.050;3.716;2023-05-10T01:33:51;23.17;;;18.47;;
13959;SDS011;7052;51.050;3.716;2023-05-10T01:36:29;24.73;;;18.37;;
13959;SDS011;7052;51.050;3.716;2023-05-10T01:39:01;30.27;;;21.47;;
13959;SDS011;7052;51.050;3.716;2023-05-10T01:41:40;26.37;;;20.27;;
13959;SDS011;7052;51.050;3.716;2023-05-10T01:44:16;26.70;;;19.00;;
13959;SDS011;7052;51.050;3.716;2023-05-10T01:46:48;28.10;;;21.67;;
13959;SDS011;7052;51.050;3.716;2023-05-10T01:49:22;27.50;;;20.00;;
13959;SDS011;7052;51.050;3.716;2023-05-10T01:51:57;27.73;;;20.80;;
13959;SDS011;7052;51.050;3.716;2023-05-10T01:54:31;28.37;;;20.90;;
13959;SDS011;7052;51.050;3.716;2023-05-10T01:57:02;27.20;;;21.47;;
13959;SDS011;7052;51.050;3.716;2023-05-10T01:59:33;29.80;;;21.57;;
13959;SDS011;7052;51.050;3.716;2023-05-10T02:02:05;29.70;;;22.30;;
13959;SDS011;7052;51.050;3.716;2023-05-10T02:04:38;28.67;;;21.40;;
13959;SDS011;7052;51.050;3.716;2023-05-10T02:07:07;26.77;;;20.77;;
13959;SDS011;7052;51.050;3.716;2023-05-10T02:09:36;27.33;;;20.30;;
13959;SDS011;7052;51.050;3.716;2023-05-10T02:12:04;28.73;;;19.77;;
13959;SDS011;7052;51.050;3.716;2023-05-10T02:14:34;26.37;;;19.17;;
13959;SDS011;7052;51.050;3.716;2023-05-10T02:17:03;24.03;;;18.53;;
13959;SDS011;7052;51.050;3.716;2023-05-10T02:19:35;25.70;;;18.47;;
13959;SDS011;7052;51.050;3.716;2023-05-10T02:22:06;27.27;;;18.57;;
13959;SDS011;7052;51.050;3.716;2023-05-10T02:24:35;30.83;;;19.33;;
13959;SDS011;7052;51.050;3.716;2023-05-10T02:27:03;29.47;;;20.00;;
13959;SDS011;7052;51.050;3.716;2023-05-10T02:29:33;26.83;;;19.43;;
13959;SDS011;7052;51.050;3.716;2023-05-10T02:32:03;26.20;;;18.07;;
13959;SDS011;7052;51.050;3.716;2023-05-10T02:34:31;27.60;;;18.13;;
13959;SDS011;7052;51.050;3.716;2023-05-10T02:37:01;27.20;;;19.30;;
13959;SDS011;7052;51.050;3.716;2023-05-10T02:39:31;26.43;;;18.27;;
13959;SDS011;7052;51.050;3.716;2023-05-10T02:41:59;26.70;;;19.40;;
13959;SDS011;7052;51.050;3.716;2023-05-10T02:44:27;27.63;;;19.10;;
13959;SDS011;7052;51.050;3.716;2023-05-10T02:46:56;24.83;;;18.63;;
13959;SDS011;7052;51.050;3.716;2023-05-10T02:49:24;23.67;;;17.30;;
13959;SDS011;7052;51.050;3.716;2023-05-10T02:51:51;24.37;;;17.10;;
13959;SDS011;7052;51.050;3.716;2023-05-10T02:54:27;24.97;;;17.53;;
13959;SDS011;7052;51.050;3.716;2023-05-10T02:57:03;24.03;;;16.63;;
13959;SDS011;7052;51.050;3.716;2023-05-10T02:59:33;24.37;;;17.17;;
13959;SDS011;7052;51.050;3.716;2023-05-10T03:02:01;22.67;;;16.07;;
13959;SDS011;7052;51.050;3.716;2023-05-10T03:04:31;21.80;;;16.53;;
13959;SDS011;7052;51.050;3.716;2023-05-10T03:06:58;20.47;;;15.30;;
13959;SDS011;7052;51.050;3.716;2023-05-10T03:09:32;19.50;;;15.20;;
13959;SDS011;7052;51.050;3.716;2023-05-10T03:12:00;20.93;;;15.30;;
13959;SDS011;7052;51.050;3.716;2023-05-10T03:14:41;20.93;;;15.77;;
13959;SDS011;7052;51.050;3.716;2023-05-10T03:17:19;19.87;;;16.00;;
13959;SDS011;7052;51.050;3.716;2023-05-10T03:19:54;23.53;;;15.90;;
13959;SDS011;7052;51.050;3.716;2023-05-10T03:22:24;19.43;;;16.10;;
13959;SDS011;7052;51.050;3.716;2023-05-10T03:25:03;20.23;;;15.27;;
13959;SDS011;7052;51.050;3.716;2023-05-10T03:27:38;21.27;;;15.30;;
13959;SDS011;7052;51.050;3.716;2023-05-10T03:30:10;24.20;;;16.03;;
13959;SDS011;7052;51.050;3.716;2023-05-10T03:32:40;21.67;;;15.73;;
13959;SDS011;7052;51.050;3.716;2023-05-10T03:35:08;20.63;;;15.77;;
13959;SDS011;7052;51.050;3.716;2023-05-10T03:37:37;19.63;;;15.43;;
13959;SDS011;7052;51.050;3.716;2023-05-10T03:40:06;22.50;;;16.77;;
13959;SDS011;7052;51.050;3.716;2023-05-10T03:42:37;22.10;;;16.60;;
13959;SDS011;7052;51.050;3.716;2023-05-10T03:45:05;19.93;;;15.53;;
13959;SDS011;7052;51.050;3.716;2023-05-10T03:47:34;21.50;;;16.37;;
13959;SDS011;7052;51.050;3.716;2023-05-10T03:50:02;20.77;;;16.27;;
13959;SDS011;7052;51.050;3.716;2023-05-10T03:52:30;26.47;;;16.73;;
13959;SDS011;7052;51.050;3.716;2023-05-10T03:54:57;22.13;;;15.93;;
13959;SDS011;7052;51.050;3.716;2023-05-10T03:57:29;21.33;;;16.83;;
13959;SDS011;7052;51.050;3.716;2023-05-10T03:59:57;23.20;;;15.20;;
13959;SDS011;7052;51.050;3.716;2023-05-10T04:02:24;21.00;;;16.63;;
13959;SDS011;7052;51.050;3.716;2023-05-10T04:04:53;24.30;;;17.43;;
13959;SDS011;7052;51.050;3.716;2023-05-10T04:07:20;26.23;;;18.10;;
13959;SDS011;7052;51.050;3.716;2023-05-10T04:09:51;24.83;;;18.07;;
13959;SDS011;7052;51.050;3.716;2023-05-10T04:12:18;25.47;;;18.77;;
13959;SDS011;7052;51.050;3.716;2023-05-10T04:14:48;26.27;;;18.63;;
13959;SDS011;7052;51.050;3.716;2023-05-10T04:17:16;26.47;;;19.60;;
13959;SDS011;7052;51.050;3.716;2023-05-10T04:19:50;30.57;;;20.70;;
13959;SDS011;7052;51.050;3.716;2023-05-10T04:22:18;29.20;;;21.23;;
13959;SDS011;7052;51.050;3.716;2023-05-10T04:24:45;37.93;;;22.20;;
13959;SDS011;7052;51.050;3.716;2023-05-10T04:27:12;30.33;;;22.43;;
13959;SDS011;7052;51.050;3.716;2023-05-10T04:29:42;29.27;;;21.17;;
13959;SDS011;7052;51.050;3.716;2023-05-10T04:32:12;29.90;;;22.23;;
13959;SDS011;7052;51.050;3.716;2023-05-10T04:34:41;31.43;;;22.27;;
13959;SDS011;7052;51.050;3.716;2023-05-10T04:37:09;32.67;;;21.93;;
13959;SDS011;7052;51.050;3.716;2023-05-10T04:39:37;33.53;;;23.70;;
13959;SDS011;7052;51.050;3.716;2023-05-10T04:42:04;31.33;;;22.10;;
13959;SDS011;7052;51.050;3.716;2023-05-10T04:44:34;37.37;;;23.37;;
13959;SDS011;7052;51.050;3.716;2023-05-10T04:47:01;34.33;;;23.23;;
13959;SDS011;7052;51.050;3.716;2023-05-10T04:49:31;34.60;;;22.40;;
13959;SDS011;7052;51.050;3.716;2023-05-10T04:52:00;36.97;;;28.40;;
13959;SDS011;7052;51.050;3.716;2023-05-10T04:54:28;37.43;;;26.00;;
13959;SDS011;7052;51.050;3.716;2023-05-10T04:56:55;33.97;;;24.27;;
13959;SDS011;7052;51.050;3.716;2023-05-10T04:59:24;34.00;;;23.03;;
13959;SDS011;7052;51.050;3.716;2023-05-10T05:01:51;29.53;;;22.47;;
13959;SDS011;7052;51.050;3.716;2023-05-10T05:04:19;37.67;;;24.17;;
13959;SDS011;7052;51.050;3.716;2023-05-10T05:06:50;34.13;;;23.63;;
13959;SDS011;7052;51.050;3.716;2023-05-10T05:09:17;36.90;;;24.23;;
13959;SDS011;7052;51.050;3.716;2023-05-10T05:11:45;35.00;;;24.77;;
13959;SDS011;7052;51.050;3.716;2023-05-10T05:14:12;37.63;;;25.27;;
13959;SDS011;7052;51.050;3.716;2023-05-10T05:16:38;33.70;;;23.60;;
13959;SDS011;7052;51.050;3.716;2023-05-10T05:19:06;38.40;;;25.57;;
13959;SDS011;7052;51.050;3.716;2023-05-10T05:21:34;40.23;;;25.33;;
13959;SDS011;7052;51.050;3.716;2023-05-10T05:24:05;42.80;;;25.17;;
13959;SDS011;7052;51.050;3.716;2023-05-10T05:26:38;38.37;;;25.07;;
13959;SDS011;7052;51.050;3.716;2023-05-10T05:29:06;39.93;;;24.47;;
13959;SDS011;7052;51.050;3.716;2023-05-10T05:31:33;34.37;;;24.40;;
13959;SDS011;7052;51.050;3.716;2023-05-10T05:34:01;40.57;;;24.50;;
13959;SDS011;7052;51.050;3.716;2023-05-10T05:36:28;39.43;;;24.13;;
13959;SDS011;7052;51.050;3.716;2023-05-10T05:38:55;34.73;;;23.00;;
13959;SDS011;7052;51.050;3.716;2023-05-10T05:41:27;31.60;;;22.67;;
13959;SDS011;7052;51.050;3.716;2023-05-10T05:43:56;34.90;;;23.70;;
13959;SDS011;7052;51.050;3.716;2023-05-10T05:46:23;34.17;;;22.73;;
13959;SDS011;7052;51.050;3.716;2023-05-10T05:48:50;30.80;;;21.90;;
13959;SDS011;7052;51.050;3.716;2023-05-10T05:51:17;33.70;;;22.73;;
13959;SDS011;7052;51.050;3.716;2023-05-10T05:53:44;29.47;;;22.53;;
13959;SDS011;7052;51.050;3.716;2023-05-10T05:56:11;33.23;;;22.63;;
13959;SDS011;7052;51.050;3.716;2023-05-10T05:58:43;33.00;;;23.20;;
13959;SDS011;7052;51.050;3.716;2023-05-10T06:01:11;30.77;;;22.93;;
13959;SDS011;7052;51.050;3.716;2023-05-10T06:03:38;33.40;;;23.03;;
13959;SDS011;7052;51.050;3.716;2023-05-10T06:06:08;44.33;;;25.03;;
13959;SDS011;7052;51.050;3.716;2023-05-10T06:08:37;39.13;;;24.60;;
13959;SDS011;7052;51.050;3.716;2023-05-10T06:11:04;42.00;;;24.80;;
13959;SDS011;7052;51.050;3.716;2023-05-10T06:13:32;35.80;;;24.37;;
13959;SDS011;7052;51.050;3.716;2023-05-10T06:16:02;38.27;;;25.67;;
13959;SDS011;7052;51.050;3.716;2023-05-10T06:18:30;36.77;;;25.37;;
13959;SDS011;7052;51.050;3.716;2023-05-10T06:20:59;37.20;;;25.40;;
13959;SDS011;7052;51.050;3.716;2023-05-10T06:23:27;35.83;;;24.53;;
13959;SDS011;7052;51.050;3.716;2023-05-10T06:25:54;40.43;;;26.07;;
13959;SDS011;7052;51.050;3.716;2023-05-10T06:28:26;40.93;;;26.07;;
13959;SDS011;7052;51.050;3.716;2023-05-10T06:30:56;44.80;;;27.03;;
13959;SDS011;7052;51.050;3.716;2023-05-10T06:33:24;39.47;;;26.53;;
13959;SDS011;7052;51.050;3.716;2023-05-10T06:35:51;40.20;;;27.03;;
13959;SDS011;7052;51.050;3.716;2023-05-10T06:38:18;39.90;;;26.10;;
13959;SDS011;7052;51.050;3.716;2023-05-10T06:40:45;41.53;;;26.20;;
13959;SDS011;7052;51.050;3.716;2023-05-10T06:43:13;45.97;;;28.27;;
13959;SDS011;7052;51.050;3.716;2023-05-10T06:45:42;39.47;;;27.20;;
13959;SDS011;7052;51.050;3.716;2023-05-10T06:48:09;40.43;;;27.70;;
13959;SDS011;7052;51.050;3.716;2023-05-10T06:50:39;40.63;;;28.67;;
13959;SDS011;7052;51.050;3.716;2023-05-10T06:53:10;41.13;;;27.37;;
13959;SDS011;7052;51.050;3.716;2023-05-10T06:55:38;41.83;;;28.10;;
13959;SDS011;7052;51.050;3.716;2023-05-10T06:58:10;41.87;;;26.97;;
13959;SDS011;7052;51.050;3.716;2023-05-10T07:00:38;45.87;;;29.70;;
13959;SDS011;7052;51.050;3.716;2023-05-10T07:03:09;37.27;;;27.17;;
13959;SDS011;7052;51.050;3.716;2023-05-10T07:05:36;42.03;;;27.57;;
13959;SDS011;7052;51.050;3.716;2023-05-10T07:08:05;37.30;;;25.90;;
13959;SDS011;7052;51.050;3.716;2023-05-10T07:10:33;45.47;;;28.67;;
13959;SDS011;7052;51.050;3.716;2023-05-10T07:13:02;37.25;;;26.27;;
13959;SDS011;7052;51.050;3.716;2023-05-10T07:15:29;40.05;;;25.50;;
13959;SDS011;7052;51.050;3.716;2023-05-10T07:17:57;39.50;;;26.93;;
13959;SDS011;7052;51.050;3.716;2023-05-10T07:20:24;35.10;;;24.58;;
13959;SDS011;7052;51.050;3.716;2023-05-10T07:23:05;32.60;;;23.40;;
13959;SDS011;7052;51.050;3.716;2023-05-10T07:25:34;32.40;;;24.00;;
13959;SDS011;7052;51.050;3.716;2023-05-10T07:28:03;31.87;;;23.57;;
13959;SDS011;7052;51.050;3.716;2023-05-10T07:30:30;32.03;;;22.80;;
13959;SDS011;7052;51.050;3.716;2023-05-10T07:32:57;34.17;;;23.07;;
13959;SDS011;7052;51.050;3.716;2023-05-10T07:35:25;31.80;;;23.00;;
13959;SDS011;7052;51.050;3.716;2023-05-10T07:37:55;31.93;;;22.33;;
13959;SDS011;7052;51.050;3.716;2023-05-10T07:40:22;34.80;;;23.10;;
13959;SDS011;7052;51.050;3.716;2023-05-10T07:42:49;30.50;;;21.83;;
13959;SDS011;7052;51.050;3.716;2023-05-10T07:45:16;31.00;;;20.97;;
13959;SDS011;7052;51.050;3.716;2023-05-10T07:47:44;28.20;;;21.43;;
13959;SDS011;7052;51.050;3.716;2023-05-10T07:50:12;28.03;;;19.70;;
13959;SDS011;7052;51.050;3.716;2023-05-10T07:52:39;33.57;;;21.33;;
13959;SDS011;7052;51.050;3.716;2023-05-10T07:55:09;34.45;;;21.85;;
13959;SDS011;7052;51.050;3.716;2023-05-10T07:57:37;31.57;;;20.93;;
13959;SDS011;7052;51.050;3.716;2023-05-10T08:00:05;32.70;;;21.77;;
13959;SDS011;7052;51.050;3.716;2023-05-10T08:02:41;26.15;;;19.27;;
13959;SDS011;7052;51.050;3.716;2023-05-10T08:05:09;33.90;;;21.63;;
13959;SDS011;7052;51.050;3.716;2023-05-10T08:07:36;31.80;;;20.70;;
13959;SDS011;7052;51.050;3.716;2023-05-10T08:10:05;32.80;;;20.17;;
13959;SDS011;7052;51.050;3.716;2023-05-10T08:12:36;28.93;;;20.90;;
13959;SDS011;7052;51.050;3.716;2023-05-10T08:15:05;37.05;;;22.38;;
13959;SDS011;7052;51.050;3.716;2023-05-10T08:17:34;29.88;;;21.52;;
13959;SDS011;7052;51.050;3.716;2023-05-10T08:20:01;33.03;;;23.10;;
13959;SDS011;7052;51.050;3.716;2023-05-10T08:22:29;39.38;;;23.15;;
13959;SDS011;7052;51.050;3.716;2023-05-10T08:24:56;29.13;;;20.00;;
13959;SDS011;7052;51.050;3.716;2023-05-10T08:27:27;27.13;;;19.80;;
13959;SDS011;7052;51.050;3.716;2023-05-10T08:29:56;26.75;;;20.30;;
13959;SDS011;7052;51.050;3.716;2023-05-10T08:32:26;24.27;;;18.92;;
13959;SDS011;7052;51.050;3.716;2023-05-10T08:34:56;28.95;;;19.38;;
13959;SDS011;7052;51.050;3.716;2023-05-10T08:37:23;29.08;;;19.50;;
13959;SDS011;7052;51.050;3.716;2023-05-10T08:39:51;27.77;;;18.20;;
13959;SDS011;7052;51.050;3.716;2023-05-10T08:42:20;25.65;;;18.73;;
13959;SDS011;7052;51.050;3.716;2023-05-10T08:44:51;27.58;;;19.70;;
13959;SDS011;7052;51.050;3.716;2023-05-10T08:47:27;33.72;;;19.40;;
13959;SDS011;7052;51.050;3.716;2023-05-10T08:49:56;28.77;;;18.37;;
13959;SDS011;7052;51.050;3.716;2023-05-10T08:52:25;25.93;;;18.50;;
13959;SDS011;7052;51.050;3.716;2023-05-10T08:54:54;31.00;;;19.00;;
13959;SDS011;7052;51.050;3.716;2023-05-10T08:57:22;25.25;;;17.00;;
13959;SDS011;7052;51.050;3.716;2023-05-10T08:59:52;26.77;;;17.80;;
13959;SDS011;7052;51.050;3.716;2023-05-10T09:02:29;26.23;;;17.73;;
13959;SDS011;7052;51.050;3.716;2023-05-10T09:04:56;27.50;;;15.87;;
13959;SDS011;7052;51.050;3.716;2023-05-10T09:07:25;27.03;;;16.40;;
13959;SDS011;7052;51.050;3.716;2023-05-10T09:09:54;31.00;;;18.73;;
13959;SDS011;7052;51.050;3.716;2023-05-10T09:12:26;48.67;;;19.20;;
13959;SDS011;7052;51.050;3.716;2023-05-10T09:14:53;41.60;;;19.07;;
13959;SDS011;7052;51.050;3.716;2023-05-10T09:17:22;30.83;;;18.90;;
13959;SDS011;7052;51.050;3.716;2023-05-10T09:20:01;24.23;;;17.27;;
13959;SDS011;7052;51.050;3.716;2023-05-10T09:22:30;31.75;;;17.05;;
13959;SDS011;7052;51.050;3.716;2023-05-10T09:25:06;24.70;;;16.97;;
13959;SDS011;7052;51.050;3.716;2023-05-10T09:27:35;22.70;;;15.60;;
13959;SDS011;7052;51.050;3.716;2023-05-10T09:30:04;22.43;;;16.10;;
13959;SDS011;7052;51.050;3.716;2023-05-10T09:32:38;23.25;;;16.52;;
13959;SDS011;7052;51.050;3.716;2023-05-10T09:35:08;28.10;;;16.95;;
13959;SDS011;7052;51.050;3.716;2023-05-10T09:37:38;24.60;;;16.67;;
13959;SDS011;7052;51.050;3.716;2023-05-10T09:40:11;23.35;;;16.10;;
13959;SDS011;7052;51.050;3.716;2023-05-10T09:42:42;23.80;;;16.27;;
13959;SDS011;7052;51.050;3.716;2023-05-10T09:45:20;24.13;;;16.55;;
13959;SDS011;7052;51.050;3.716;2023-05-10T09:47:52;24.80;;;16.00;;
13959;SDS011;7052;51.050;3.716;2023-05-10T09:50:22;22.25;;;15.27;;
13959;SDS011;7052;51.050;3.716;2023-05-10T09:52:50;20.52;;;15.55;;
13959;SDS011;7052;51.050;3.716;2023-05-10T09:55:23;18.13;;;14.27;;
13959;SDS011;7052;51.050;3.716;2023-05-10T09:57:58;21.40;;;14.48;;
13959;SDS011;7052;51.050;3.716;2023-05-10T10:00:27;20.83;;;14.85;;
13959;SDS011;7052;51.050;3.716;2023-05-10T10:03:01;16.23;;;13.18;;
13959;SDS011;7052;51.050;3.716;2023-05-10T10:05:33;19.10;;;12.95;;
13959;SDS011;7052;51.050;3.716;2023-05-10T10:08:02;17.73;;;12.90;;
13959;SDS011;7052;51.050;3.716;2023-05-10T10:10:31;18.98;;;13.75;;
13959;SDS011;7052;51.050;3.716;2023-05-10T10:13:00;16.70;;;12.80;;
13959;SDS011;7052;51.050;3.716;2023-05-10T10:15:34;19.15;;;12.73;;
13959;SDS011;7052;51.050;3.716;2023-05-10T10:18:01;18.50;;;12.90;;
13959;SDS011;7052;51.050;3.716;2023-05-10T10:20:29;17.95;;;12.80;;
13959;SDS011;7052;51.050;3.716;2023-05-10T10:23:03;17.02;;;12.43;;
13959;SDS011;7052;51.050;3.716;2023-05-10T10:25:31;15.18;;;11.25;;
13959;SDS011;7052;51.050;3.716;2023-05-10T10:28:05;16.27;;;11.40;;
13959;SDS011;7052;51.050;3.716;2023-05-10T10:30:45;18.50;;;12.23;;
13959;SDS011;7052;51.050;3.716;2023-05-10T10:33:29;18.88;;;13.18;;
13959;SDS011;7052;51.050;3.716;2023-05-10T10:36:13;13.27;;;10.98;;
13959;SDS011;7052;51.050;3.716;2023-05-10T10:38:57;17.25;;;11.63;;
13959;SDS011;7052;51.050;3.716;2023-05-10T10:41:32;15.50;;;11.38;;
13959;SDS011;7052;51.050;3.716;2023-05-10T10:47:03;17.38;;;11.65;;
13959;SDS011;7052;51.050;3.716;2023-05-10T10:49:37;18.02;;;12.00;;
13959;SDS011;7052;51.050;3.716;2023-05-10T10:52:20;22.13;;;13.15;;
13959;SDS011;7052;51.050;3.716;2023-05-10T10:54:56;67.65;;;18.08;;
13959;SDS011;7052;51.050;3.716;2023-05-10T10:57:26;27.63;;;13.30;;
13959;SDS011;7052;51.050;3.716;2023-05-10T11:03:03;17.08;;;13.15;;
13959;SDS011;7052;51.050;3.716;2023-05-10T11:05:35;18.02;;;13.00;;
13959;SDS011;7052;51.050;3.716;2023-05-10T11:08:12;20.23;;;13.05;;
13959;SDS011;7052;51.050;3.716;2023-05-10T11:13:40;17.40;;;13.98;;
13959;SDS011;7052;51.050;3.716;2023-05-10T11:16:16;24.65;;;15.13;;
13959;SDS011;7052;51.050;3.716;2023-05-10T11:18:56;21.52;;;14.95;;
13959;SDS011;7052;51.050;3.716;2023-05-10T11:21:26;21.17;;;16.35;;
13959;SDS011;7052;51.050;3.716;2023-05-10T11:23:56;22.67;;;17.42;;
13959;SDS011;7052;51.050;3.716;2023-05-10T11:26:26;23.25;;;16.80;;
13959;SDS011;7052;51.050;3.716;2023-05-10T11:28:56;20.33;;;18.10;;
13959;SDS011;7052;51.050;3.716;2023-05-10T11:31:25;24.00;;;18.65;;
13959;SDS011;7052;51.050;3.716;2023-05-10T11:33:53;21.85;;;18.48;;
13959;SDS011;7052;51.050;3.716;2023-05-10T11:36:25;21.63;;;19.17;;
13959;SDS011;7052;51.050;3.716;2023-05-10T11:38:57;22.85;;;19.40;;
13959;SDS011;7052;51.050;3.716;2023-05-10T11:41:28;21.67;;;18.15;;
13959;SDS011;7052;51.050;3.716;2023-05-10T11:43:56;23.42;;;19.65;;
13959;SDS011;7052;51.050;3.716;2023-05-10T11:46:24;22.05;;;19.48;;
13959;SDS011;7052;51.050;3.716;2023-05-10T11:48:54;26.05;;;19.88;;
13959;SDS011;7052;51.050;3.716;2023-05-10T11:51:29;27.33;;;19.77;;
13959;SDS011;7052;51.050;3.716;2023-05-10T11:54:05;21.02;;;18.83;;
13959;SDS011;7052;51.050;3.716;2023-05-10T11:56:38;21.83;;;19.30;;
13959;SDS011;7052;51.050;3.716;2023-05-10T11:59:08;23.80;;;19.80;;
13959;SDS011;7052;51.050;3.716;2023-05-10T12:01:36;21.30;;;18.52;;
13959;SDS011;7052;51.050;3.716;2023-05-10T12:04:04;24.70;;;18.15;;
13959;SDS011;7052;51.050;3.716;2023-05-10T12:06:37;22.88;;;18.23;;
13959;SDS011;7052;51.050;3.716;2023-05-10T12:09:10;29.63;;;18.60;;
13959;SDS011;7052;51.050;3.716;2023-05-10T12:11:39;43.97;;;21.30;;
13959;SDS011;7052;51.050;3.716;2023-05-10T12:14:07;28.80;;;17.83;;
13959;SDS011;7052;51.050;3.716;2023-05-10T12:16:35;24.50;;;17.42;;
13959;SDS011;7052;51.050;3.716;2023-05-10T12:19:03;23.60;;;17.83;;
13959;SDS011;7052;51.050;3.716;2023-05-10T12:21:31;18.92;;;16.73;;
13959;SDS011;7052;51.050;3.716;2023-05-10T12:24:00;19.98;;;15.82;;
13959;SDS011;7052;51.050;3.716;2023-05-10T12:26:34;20.25;;;16.35;;
13959;SDS011;7052;51.050;3.716;2023-05-10T12:29:13;75.10;;;24.08;;
13959;SDS011;7052;51.050;3.716;2023-05-10T12:31:51;168.73;;;38.72;;
13959;SDS011;7052;51.050;3.716;2023-05-10T12:34:22;22.92;;;16.33;;
13959;SDS011;7052;51.050;3.716;2023-05-10T12:37:02;20.80;;;16.33;;
13959;SDS011;7052;51.050;3.716;2023-05-10T12:39:41;19.50;;;16.58;;
13959;SDS011;7052;51.050;3.716;2023-05-10T12:42:22;19.00;;;15.27;;
13959;SDS011;7052;51.050;3.716;2023-05-10T12:44:54;19.70;;;15.55;;
13959;SDS011;7052;51.050;3.716;2023-05-10T12:47:21;20.67;;;16.33;;
13959;SDS011;7052;51.050;3.716;2023-05-10T12:49:49;22.10;;;16.40;;
13959;SDS011;7052;51.050;3.716;2023-05-10T12:52:16;23.20;;;18.30;;
13959;SDS011;7052;51.050;3.716;2023-05-10T12:54:43;21.00;;;16.67;;
13959;SDS011;7052;51.050;3.716;2023-05-10T12:57:12;21.15;;;18.08;;
13959;SDS011;7052;51.050;3.716;2023-05-10T12:59:39;21.13;;;16.42;;
13959;SDS011;7052;51.050;3.716;2023-05-10T13:02:20;27.02;;;17.75;;
13959;SDS011;7052;51.050;3.716;2023-05-10T13:04:48;22.45;;;16.75;;
13959;SDS011;7052;51.050;3.716;2023-05-10T13:07:15;23.83;;;17.80;;
13959;SDS011;7052;51.050;3.716;2023-05-10T13:09:43;21.58;;;17.90;;
13959;SDS011;7052;51.050;3.716;2023-05-10T13:12:13;22.83;;;17.98;;
13959;SDS011;7052;51.050;3.716;2023-05-10T13:14:40;23.60;;;18.02;;
13959;SDS011;7052;51.050;3.716;2023-05-10T13:17:10;24.13;;;19.27;;
13959;SDS011;7052;51.050;3.716;2023-05-10T13:19:37;22.58;;;17.98;;
13959;SDS011;7052;51.050;3.716;2023-05-10T13:22:08;24.15;;;18.15;;
13959;SDS011;7052;51.050;3.716;2023-05-10T13:24:35;26.50;;;19.40;;
13959;SDS011;7052;51.050;3.716;2023-05-10T13:27:05;24.13;;;17.52;;
13959;SDS011;7052;51.050;3.716;2023-05-10T13:29:34;25.33;;;17.40;;
13959;SDS011;7052;51.050;3.716;2023-05-10T13:32:02;23.50;;;18.30;;
13959;SDS011;7052;51.050;3.716;2023-05-10T13:34:34;21.50;;;17.67;;
13959;SDS011;7052;51.050;3.716;2023-05-10T13:37:01;23.83;;;17.10;;
13959;SDS011;7052;51.050;3.716;2023-05-10T13:39:29;23.02;;;16.02;;
13959;SDS011;7052;51.050;3.716;2023-05-10T13:41:59;20.63;;;17.20;;
13959;SDS011;7052;51.050;3.716;2023-05-10T13:44:28;22.33;;;17.05;;
13959;SDS011;7052;51.050;3.716;2023-05-10T13:46:57;22.65;;;16.58;;
13959;SDS011;7052;51.050;3.716;2023-05-10T13:49:25;25.30;;;17.13;;
13959;SDS011;7052;51.050;3.716;2023-05-10T13:51:53;22.38;;;16.70;;
13959;SDS011;7052;51.050;3.716;2023-05-10T13:54:20;22.13;;;17.25;;
13959;SDS011;7052;51.050;3.716;2023-05-10T13:56:50;25.38;;;17.42;;
13959;SDS011;7052;51.050;3.716;2023-05-10T13:59:17;21.23;;;17.30;;
13959;SDS011;7052;51.050;3.716;2023-05-10T14:01:44;23.13;;;18.08;;
13959;SDS011;7052;51.050;3.716;2023-05-10T14:04:13;28.55;;;18.60;;
13959;SDS011;7052;51.050;3.716;2023-05-10T14:06:40;28.48;;;18.27;;
13959;SDS011;7052;51.050;3.716;2023-05-10T14:09:07;32.05;;;18.75;;
13959;SDS011;7052;51.050;3.716;2023-05-10T14:11:37;24.77;;;19.08;;
13959;SDS011;7052;51.050;3.716;2023-05-10T14:14:08;26.93;;;17.87;;
13959;SDS011;7052;51.050;3.716;2023-05-10T14:16:38;23.27;;;17.15;;
13959;SDS011;7052;51.050;3.716;2023-05-10T14:19:13;25.05;;;18.73;;
13959;SDS011;7052;51.050;3.716;2023-05-10T14:21:40;30.37;;;18.27;;
13959;SDS011;7052;51.050;3.716;2023-05-10T14:24:08;28.45;;;20.00;;
13959;SDS011;7052;51.050;3.716;2023-05-10T14:26:35;26.10;;;20.58;;
13959;SDS011;7052;51.050;3.716;2023-05-10T14:29:03;24.73;;;19.15;;
13959;SDS011;7052;51.050;3.716;2023-05-10T14:31:31;26.67;;;17.75;;
13959;SDS011;7052;51.050;3.716;2023-05-10T14:33:58;25.10;;;18.53;;
13959;SDS011;7052;51.050;3.716;2023-05-10T14:36:30;21.57;;;16.80;;
13959;SDS011;7052;51.050;3.716;2023-05-10T14:38:57;23.20;;;16.83;;
13959;SDS011;7052;51.050;3.716;2023-05-10T14:41:26;25.98;;;16.80;;
13959;SDS011;7052;51.050;3.716;2023-05-10T14:43:57;23.23;;;16.70;;
13959;SDS011;7052;51.050;3.716;2023-05-10T14:46:25;18.42;;;14.30;;
13959;SDS011;7052;51.050;3.716;2023-05-10T14:48:52;20.23;;;13.70;;
13959;SDS011;7052;51.050;3.716;2023-05-10T14:51:27;21.92;;;12.57;;
13959;SDS011;7052;51.050;3.716;2023-05-10T14:53:56;17.08;;;11.30;;
13959;SDS011;7052;51.050;3.716;2023-05-10T14:56:24;15.85;;;10.18;;
13959;SDS011;7052;51.050;3.716;2023-05-10T14:58:52;15.80;;;10.75;;